Urb Los Dominicos, Puerto Rico
Current Conditions -  °F | °C
As of 5:56 PM on Sunday 21 Dec 2014 (Local Time) from TJSJ Reporting Station
Few Clouds Few Clouds  
Wind Chill: 79°   Ceiling: Unl
Heat Index: 81°   Visibility: 10mi
Dew Point: 67°   Wind: 9mph
Humidity: 66%   Direction: 70°ENE
Pressure: 30.03"   Gusts: NA
Location:  18.1783°N, 66.1111°W
Report Text: TJSJ 212156Z 07008KT 10SM FEW040 26/19 A3003 RMK AO2 SLP167 T02610194
Loading
Personal Weather Stations






























Interactive Weather Map New forecast layout! Learn more

10-Day Weather Forecast

Advertisements
Track Severe Weather on mobile